sensor_id;sensor_type;location;lat;lon;timestamp;P1;durP1;ratioP1;P2;durP2;ratioP2
31128;SDS011;17777;48.770;8.944;2023-06-01T00:02:05;1.55;;;1.17;;
31128;SDS011;17777;48.770;8.944;2023-06-01T00:04:31;2.08;;;1.48;;
31128;SDS011;17777;48.770;8.944;2023-06-01T00:06:57;3.08;;;1.25;;
31128;SDS011;17777;48.770;8.944;2023-06-01T00:09:26;2.53;;;1.52;;
31128;SDS011;17777;48.770;8.944;2023-06-01T00:11:52;2.30;;;1.45;;
31128;SDS011;17777;48.770;8.944;2023-06-01T00:14:18;2.08;;;1.08;;
31128;SDS011;17777;48.770;8.944;2023-06-01T00:16:44;1.55;;;1.10;;
31128;SDS011;17777;48.770;8.944;2023-06-01T00:19:10;2.35;;;1.55;;
31128;SDS011;17777;48.770;8.944;2023-06-01T00:21:36;3.25;;;1.05;;
31128;SDS011;17777;48.770;8.944;2023-06-01T00:24:02;1.63;;;1.30;;
31128;SDS011;17777;48.770;8.944;2023-06-01T00:26:28;2.33;;;1.30;;
31128;SDS011;17777;48.770;8.944;2023-06-01T00:28:58;2.20;;;1.40;;
31128;SDS011;17777;48.770;8.944;2023-06-01T00:31:25;1.42;;;1.30;;
31128;SDS011;17777;48.770;8.944;2023-06-01T00:33:51;1.75;;;1.15;;
31128;SDS011;17777;48.770;8.944;2023-06-01T00:36:17;2.88;;;1.30;;
31128;SDS011;17777;48.770;8.944;2023-06-01T00:38:43;1.88;;;1.30;;
31128;SDS011;17777;48.770;8.944;2023-06-01T00:41:09;2.38;;;1.40;;
31128;SDS011;17777;48.770;8.944;2023-06-01T00:43:36;3.03;;;1.30;;
31128;SDS011;17777;48.770;8.944;2023-06-01T00:46:01;3.30;;;1.40;;
31128;SDS011;17777;48.770;8.944;2023-06-01T00:48:28;1.35;;;1.25;;
31128;SDS011;17777;48.770;8.944;2023-06-01T00:50:53;2.20;;;1.60;;
31128;SDS011;17777;48.770;8.944;2023-06-01T00:53:20;2.13;;;1.20;;
31128;SDS011;17777;48.770;8.944;2023-06-01T00:55:46;3.50;;;1.35;;
31128;SDS011;17777;48.770;8.944;2023-06-01T00:58:13;2.42;;;1.35;;
31128;SDS011;17777;48.770;8.944;2023-06-01T01:00:40;2.20;;;1.02;;
31128;SDS011;17777;48.770;8.944;2023-06-01T01:03:06;1.73;;;1.45;;
31128;SDS011;17777;48.770;8.944;2023-06-01T01:05:34;3.88;;;1.23;;
31128;SDS011;17777;48.770;8.944;2023-06-01T01:10:38;3.35;;;1.10;;
31128;SDS011;17777;48.770;8.944;2023-06-01T01:16:24;1.50;;;1.05;;
31128;SDS011;17777;48.770;8.944;2023-06-01T01:19:00;4.28;;;1.20;;
31128;SDS011;17777;48.770;8.944;2023-06-01T01:22:00;1.50;;;1.10;;
31128;SDS011;17777;48.770;8.944;2023-06-01T01:30:09;1.55;;;0.95;;
31128;SDS011;17777;48.770;8.944;2023-06-01T01:32:36;2.05;;;1.20;;
31128;SDS011;17777;48.770;8.944;2023-06-01T01:35:03;1.50;;;1.20;;
31128;SDS011;17777;48.770;8.944;2023-06-01T01:37:32;2.13;;;1.20;;
31128;SDS011;17777;48.770;8.944;2023-06-01T01:39:58;2.35;;;1.35;;
31128;SDS011;17777;48.770;8.944;2023-06-01T01:42:25;3.10;;;1.40;;
31128;SDS011;17777;48.770;8.944;2023-06-01T01:44:52;4.25;;;1.45;;
31128;SDS011;17777;48.770;8.944;2023-06-01T01:50:09;3.83;;;1.50;;
31128;SDS011;17777;48.770;8.944;2023-06-01T01:52:41;1.75;;;1.23;;
31128;SDS011;17777;48.770;8.944;2023-06-01T01:55:08;1.98;;;1.40;;
31128;SDS011;17777;48.770;8.944;2023-06-01T01:57:35;1.58;;;1.48;;
31128;SDS011;17777;48.770;8.944;2023-06-01T02:00:02;3.58;;;1.30;;
31128;SDS011;17777;48.770;8.944;2023-06-01T02:02:38;2.00;;;1.40;;
31128;SDS011;17777;48.770;8.944;2023-06-01T02:05:04;1.27;;;1.10;;
31128;SDS011;17777;48.770;8.944;2023-06-01T02:07:31;1.60;;;1.35;;
31128;SDS011;17777;48.770;8.944;2023-06-01T02:10:00;1.90;;;1.20;;
31128;SDS011;17777;48.770;8.944;2023-06-01T02:12:25;1.55;;;1.25;;
31128;SDS011;17777;48.770;8.944;2023-06-01T02:14:51;4.32;;;1.40;;
31128;SDS011;17777;48.770;8.944;2023-06-01T02:17:17;1.95;;;1.25;;
31128;SDS011;17777;48.770;8.944;2023-06-01T02:19:43;1.35;;;1.15;;
31128;SDS011;17777;48.770;8.944;2023-06-01T02:22:09;2.15;;;1.20;;
31128;SDS011;17777;48.770;8.944;2023-06-01T02:24:35;1.58;;;1.30;;
31128;SDS011;17777;48.770;8.944;2023-06-01T02:27:01;2.42;;;1.35;;
31128;SDS011;17777;48.770;8.944;2023-06-01T02:29:27;1.88;;;1.40;;
31128;SDS011;17777;48.770;8.944;2023-06-01T02:31:53;2.60;;;1.38;;
31128;SDS011;17777;48.770;8.944;2023-06-01T02:34:19;1.92;;;1.25;;
31128;SDS011;17777;48.770;8.944;2023-06-01T02:36:46;1.88;;;1.27;;
31128;SDS011;17777;48.770;8.944;2023-06-01T02:39:14;1.48;;;1.20;;
31128;SDS011;17777;48.770;8.944;2023-06-01T02:41:41;2.83;;;1.30;;
31128;SDS011;17777;48.770;8.944;2023-06-01T02:44:06;2.15;;;1.23;;
31128;SDS011;17777;48.770;8.944;2023-06-01T02:46:32;3.00;;;1.45;;
31128;SDS011;17777;48.770;8.944;2023-06-01T02:48:59;1.90;;;1.40;;
31128;SDS011;17777;48.770;8.944;2023-06-01T02:51:25;3.70;;;1.60;;
31128;SDS011;17777;48.770;8.944;2023-06-01T02:54:01;2.10;;;1.40;;
31128;SDS011;17777;48.770;8.944;2023-06-01T02:56:27;1.88;;;1.17;;
31128;SDS011;17777;48.770;8.944;2023-06-01T02:59:13;1.88;;;1.20;;
31128;SDS011;17777;48.770;8.944;2023-06-01T03:01:45;2.75;;;1.60;;
31128;SDS011;17777;48.770;8.944;2023-06-01T03:04:11;1.80;;;1.30;;
31128;SDS011;17777;48.770;8.944;2023-06-01T03:06:38;2.75;;;1.40;;
31128;SDS011;17777;48.770;8.944;2023-06-01T03:09:31;1.55;;;1.35;;
31128;SDS011;17777;48.770;8.944;2023-06-01T03:12:02;3.38;;;1.35;;
31128;SDS011;17777;48.770;8.944;2023-06-01T03:14:30;2.72;;;1.30;;
31128;SDS011;17777;48.770;8.944;2023-06-01T03:16:55;1.90;;;1.40;;
31128;SDS011;17777;48.770;8.944;2023-06-01T03:19:22;1.88;;;1.20;;
31128;SDS011;17777;48.770;8.944;2023-06-01T03:21:51;2.20;;;1.38;;
31128;SDS011;17777;48.770;8.944;2023-06-01T03:24:19;1.80;;;1.50;;
31128;SDS011;17777;48.770;8.944;2023-06-01T03:26:46;1.58;;;1.40;;
31128;SDS011;17777;48.770;8.944;2023-06-01T03:29:12;3.65;;;1.40;;
31128;SDS011;17777;48.770;8.944;2023-06-01T03:31:38;2.13;;;1.40;;
31128;SDS011;17777;48.770;8.944;2023-06-01T03:34:04;1.35;;;1.25;;
31128;SDS011;17777;48.770;8.944;2023-06-01T03:36:31;3.15;;;1.30;;
31128;SDS011;17777;48.770;8.944;2023-06-01T03:38:58;2.80;;;1.10;;
31128;SDS011;17777;48.770;8.944;2023-06-01T03:41:25;2.13;;;1.40;;
31128;SDS011;17777;48.770;8.944;2023-06-01T03:43:52;2.10;;;1.50;;
31128;SDS011;17777;48.770;8.944;2023-06-01T03:46:18;2.72;;;1.70;;
31128;SDS011;17777;48.770;8.944;2023-06-01T03:48:44;2.10;;;1.30;;
31128;SDS011;17777;48.770;8.944;2023-06-01T03:51:10;1.30;;;1.17;;
31128;SDS011;17777;48.770;8.944;2023-06-01T03:53:36;3.60;;;1.52;;
31128;SDS011;17777;48.770;8.944;2023-06-01T03:56:02;2.20;;;1.27;;
31128;SDS011;17777;48.770;8.944;2023-06-01T03:58:35;1.50;;;1.20;;
31128;SDS011;17777;48.770;8.944;2023-06-01T04:01:02;2.10;;;1.33;;
31128;SDS011;17777;48.770;8.944;2023-06-01T04:03:28;1.45;;;1.23;;
31128;SDS011;17777;48.770;8.944;2023-06-01T04:05:54;4.20;;;1.17;;
31128;SDS011;17777;48.770;8.944;2023-06-01T04:08:24;2.45;;;1.33;;
31128;SDS011;17777;48.770;8.944;2023-06-01T04:10:51;3.85;;;1.50;;
31128;SDS011;17777;48.770;8.944;2023-06-01T04:13:17;4.40;;;1.40;;
31128;SDS011;17777;48.770;8.944;2023-06-01T04:15:44;7.75;;;1.70;;
31128;SDS011;17777;48.770;8.944;2023-06-01T04:18:13;2.63;;;1.38;;
31128;SDS011;17777;48.770;8.944;2023-06-01T04:20:52;3.20;;;1.58;;
31128;SDS011;17777;48.770;8.944;2023-06-01T04:23:19;2.60;;;1.40;;
31128;SDS011;17777;48.770;8.944;2023-06-01T04:25:45;3.90;;;1.30;;
31128;SDS011;17777;48.770;8.944;2023-06-01T04:28:16;2.17;;;1.45;;
31128;SDS011;17777;48.770;8.944;2023-06-01T04:30:43;2.45;;;1.60;;
31128;SDS011;17777;48.770;8.944;2023-06-01T04:33:09;3.30;;;1.70;;
31128;SDS011;17777;48.770;8.944;2023-06-01T04:35:36;1.58;;;1.38;;
31128;SDS011;17777;48.770;8.944;2023-06-01T04:38:05;3.25;;;1.65;;
31128;SDS011;17777;48.770;8.944;2023-06-01T04:40:31;2.33;;;1.65;;
31128;SDS011;17777;48.770;8.944;2023-06-01T04:42:56;5.22;;;1.83;;
31128;SDS011;17777;48.770;8.944;2023-06-01T04:45:25;3.28;;;1.27;;
31128;SDS011;17777;48.770;8.944;2023-06-01T04:47:51;1.45;;;1.27;;
31128;SDS011;17777;48.770;8.944;2023-06-01T04:50:20;2.40;;;1.70;;
31128;SDS011;17777;48.770;8.944;2023-06-01T04:52:46;4.93;;;1.52;;
31128;SDS011;17777;48.770;8.944;2023-06-01T04:55:14;1.85;;;1.65;;
31128;SDS011;17777;48.770;8.944;2023-06-01T04:57:40;2.63;;;1.60;;
31128;SDS011;17777;48.770;8.944;2023-06-01T05:00:09;4.15;;;1.73;;
31128;SDS011;17777;48.770;8.944;2023-06-01T05:02:38;2.90;;;1.50;;
31128;SDS011;17777;48.770;8.944;2023-06-01T05:05:06;2.42;;;1.60;;
31128;SDS011;17777;48.770;8.944;2023-06-01T05:07:33;1.90;;;1.60;;
31128;SDS011;17777;48.770;8.944;2023-06-01T05:10:01;2.33;;;1.63;;
31128;SDS011;17777;48.770;8.944;2023-06-01T05:12:33;2.03;;;1.70;;
31128;SDS011;17777;48.770;8.944;2023-06-01T05:15:04;3.75;;;2.05;;
31128;SDS011;17777;48.770;8.944;2023-06-01T05:17:33;2.53;;;1.70;;
31128;SDS011;17777;48.770;8.944;2023-06-01T05:20:01;2.67;;;1.67;;
31128;SDS011;17777;48.770;8.944;2023-06-01T05:22:28;3.42;;;1.73;;
31128;SDS011;17777;48.770;8.944;2023-06-01T05:24:54;2.45;;;1.60;;
31128;SDS011;17777;48.770;8.944;2023-06-01T05:27:21;2.17;;;1.70;;
31128;SDS011;17777;48.770;8.944;2023-06-01T05:29:46;3.90;;;1.85;;
31128;SDS011;17777;48.770;8.944;2023-06-01T05:32:13;1.85;;;1.50;;
31128;SDS011;17777;48.770;8.944;2023-06-01T05:34:38;2.90;;;1.80;;
31128;SDS011;17777;48.770;8.944;2023-06-01T05:37:04;3.47;;;1.88;;
31128;SDS011;17777;48.770;8.944;2023-06-01T05:39:30;2.95;;;1.95;;
31128;SDS011;17777;48.770;8.944;2023-06-01T05:41:56;3.63;;;1.85;;
31128;SDS011;17777;48.770;8.944;2023-06-01T05:44:23;2.53;;;1.73;;
31128;SDS011;17777;48.770;8.944;2023-06-01T05:46:50;3.72;;;2.05;;
31128;SDS011;17777;48.770;8.944;2023-06-01T05:49:21;3.05;;;1.83;;
31128;SDS011;17777;48.770;8.944;2023-06-01T05:51:47;2.85;;;1.75;;
31128;SDS011;17777;48.770;8.944;2023-06-01T05:54:13;3.60;;;2.00;;
31128;SDS011;17777;48.770;8.944;2023-06-01T05:56:39;6.75;;;1.85;;
31128;SDS011;17777;48.770;8.944;2023-06-01T05:59:08;2.58;;;1.83;;
31128;SDS011;17777;48.770;8.944;2023-06-01T06:01:34;3.00;;;1.85;;
31128;SDS011;17777;48.770;8.944;2023-06-01T06:04:01;5.30;;;1.90;;
31128;SDS011;17777;48.770;8.944;2023-06-01T06:06:27;2.33;;;1.90;;
31128;SDS011;17777;48.770;8.944;2023-06-01T06:08:52;2.80;;;2.10;;
31128;SDS011;17777;48.770;8.944;2023-06-01T06:11:18;3.13;;;1.63;;
31128;SDS011;17777;48.770;8.944;2023-06-01T06:13:47;4.32;;;1.70;;
31128;SDS011;17777;48.770;8.944;2023-06-01T06:16:15;2.70;;;1.80;;
31128;SDS011;17777;48.770;8.944;2023-06-01T06:18:40;2.65;;;1.40;;
31128;SDS011;17777;48.770;8.944;2023-06-01T06:21:06;2.22;;;1.52;;
31128;SDS011;17777;48.770;8.944;2023-06-01T06:23:32;2.97;;;1.40;;
31128;SDS011;17777;48.770;8.944;2023-06-01T06:25:58;2.38;;;1.52;;
31128;SDS011;17777;48.770;8.944;2023-06-01T06:28:24;4.28;;;1.77;;
31128;SDS011;17777;48.770;8.944;2023-06-01T06:30:51;5.05;;;1.98;;
31128;SDS011;17777;48.770;8.944;2023-06-01T06:33:17;2.75;;;1.55;;
31128;SDS011;17777;48.770;8.944;2023-06-01T06:35:43;2.30;;;1.40;;
31128;SDS011;17777;48.770;8.944;2023-06-01T06:38:09;3.67;;;1.90;;
31128;SDS011;17777;48.770;8.944;2023-06-01T06:40:36;2.35;;;1.52;;
31128;SDS011;17777;48.770;8.944;2023-06-01T06:43:02;2.70;;;1.38;;
31128;SDS011;17777;48.770;8.944;2023-06-01T06:45:28;3.78;;;1.50;;
31128;SDS011;17777;48.770;8.944;2023-06-01T06:47:53;2.25;;;1.40;;
31128;SDS011;17777;48.770;8.944;2023-06-01T06:50:19;3.25;;;1.38;;
31128;SDS011;17777;48.770;8.944;2023-06-01T06:52:45;4.03;;;1.58;;
31128;SDS011;17777;48.770;8.944;2023-06-01T06:55:11;2.38;;;1.30;;
31128;SDS011;17777;48.770;8.944;2023-06-01T06:57:37;4.65;;;1.42;;
31128;SDS011;17777;48.770;8.944;2023-06-01T07:00:05;2.83;;;1.55;;
31128;SDS011;17777;48.770;8.944;2023-06-01T07:02:39;1.98;;;1.15;;
31128;SDS011;17777;48.770;8.944;2023-06-01T07:05:10;1.98;;;1.27;;
31128;SDS011;17777;48.770;8.944;2023-06-01T07:07:36;2.30;;;1.48;;
31128;SDS011;17777;48.770;8.944;2023-06-01T07:10:03;2.75;;;1.75;;
31128;SDS011;17777;48.770;8.944;2023-06-01T07:12:29;3.78;;;1.55;;
31128;SDS011;17777;48.770;8.944;2023-06-01T07:14:55;3.40;;;1.42;;
31128;SDS011;17777;48.770;8.944;2023-06-01T07:17:21;3.80;;;1.58;;
31128;SDS011;17777;48.770;8.944;2023-06-01T07:19:47;2.88;;;1.58;;
31128;SDS011;17777;48.770;8.944;2023-06-01T07:22:12;11.35;;;1.80;;
31128;SDS011;17777;48.770;8.944;2023-06-01T07:24:38;2.75;;;1.35;;
31128;SDS011;17777;48.770;8.944;2023-06-01T07:27:04;2.65;;;1.50;;
31128;SDS011;17777;48.770;8.944;2023-06-01T07:29:30;3.22;;;1.80;;
31128;SDS011;17777;48.770;8.944;2023-06-01T07:31:57;3.90;;;1.70;;
31128;SDS011;17777;48.770;8.944;2023-06-01T07:34:23;5.18;;;1.85;;
31128;SDS011;17777;48.770;8.944;2023-06-01T07:36:50;3.83;;;1.50;;
31128;SDS011;17777;48.770;8.944;2023-06-01T07:39:15;4.55;;;1.85;;
31128;SDS011;17777;48.770;8.944;2023-06-01T07:41:44;2.05;;;1.60;;
31128;SDS011;17777;48.770;8.944;2023-06-01T07:44:10;8.40;;;1.80;;
31128;SDS011;17777;48.770;8.944;2023-06-01T07:46:37;4.28;;;1.70;;
31128;SDS011;17777;48.770;8.944;2023-06-01T07:49:03;5.25;;;1.60;;
31128;SDS011;17777;48.770;8.944;2023-06-01T07:51:29;4.93;;;1.80;;
31128;SDS011;17777;48.770;8.944;2023-06-01T07:53:56;2.40;;;1.48;;
31128;SDS011;17777;48.770;8.944;2023-06-01T07:56:23;3.65;;;1.85;;
31128;SDS011;17777;48.770;8.944;2023-06-01T07:58:52;5.93;;;2.00;;
31128;SDS011;17777;48.770;8.944;2023-06-01T08:01:18;3.55;;;1.98;;
31128;SDS011;17777;48.770;8.944;2023-06-01T08:03:44;2.80;;;1.42;;
31128;SDS011;17777;48.770;8.944;2023-06-01T08:06:10;2.83;;;1.70;;
31128;SDS011;17777;48.770;8.944;2023-06-01T08:08:36;2.58;;;1.67;;
31128;SDS011;17777;48.770;8.944;2023-06-01T08:11:03;3.65;;;1.67;;
31128;SDS011;17777;48.770;8.944;2023-06-01T08:13:29;3.95;;;1.90;;
31128;SDS011;17777;48.770;8.944;2023-06-01T08:15:54;5.57;;;1.48;;
31128;SDS011;17777;48.770;8.944;2023-06-01T08:18:20;3.45;;;1.98;;
31128;SDS011;17777;48.770;8.944;2023-06-01T08:20:47;1.85;;;1.45;;
31128;SDS011;17777;48.770;8.944;2023-06-01T08:23:13;4.05;;;2.03;;
31128;SDS011;17777;48.770;8.944;2023-06-01T08:25:41;3.03;;;1.95;;
31128;SDS011;17777;48.770;8.944;2023-06-01T08:28:09;4.20;;;1.88;;
31128;SDS011;17777;48.770;8.944;2023-06-01T08:30:35;3.70;;;1.75;;
31128;SDS011;17777;48.770;8.944;2023-06-01T08:33:01;2.75;;;1.70;;
31128;SDS011;17777;48.770;8.944;2023-06-01T08:35:28;5.07;;;1.65;;
31128;SDS011;17777;48.770;8.944;2023-06-01T08:37:55;3.97;;;1.83;;
31128;SDS011;17777;48.770;8.944;2023-06-01T08:40:21;5.45;;;2.05;;
31128;SDS011;17777;48.770;8.944;2023-06-01T08:42:57;4.00;;;2.25;;
31128;SDS011;17777;48.770;8.944;2023-06-01T08:45:28;2.92;;;2.00;;
31128;SDS011;17777;48.770;8.944;2023-06-01T08:47:54;4.72;;;2.22;;
31128;SDS011;17777;48.770;8.944;2023-06-01T08:50:23;4.20;;;2.00;;
31128;SDS011;17777;48.770;8.944;2023-06-01T08:52:52;4.03;;;1.98;;
31128;SDS011;17777;48.770;8.944;2023-06-01T08:55:21;2.28;;;1.70;;
31128;SDS011;17777;48.770;8.944;2023-06-01T08:57:47;3.22;;;1.90;;
31128;SDS011;17777;48.770;8.944;2023-06-01T09:00:14;3.33;;;1.88;;
31128;SDS011;17777;48.770;8.944;2023-06-01T09:02:42;6.63;;;2.05;;
31128;SDS011;17777;48.770;8.944;2023-06-01T09:05:08;3.85;;;1.98;;
31128;SDS011;17777;48.770;8.944;2023-06-01T09:07:36;3.55;;;2.15;;
31128;SDS011;17777;48.770;8.944;2023-06-01T09:10:03;4.38;;;2.13;;
31128;SDS011;17777;48.770;8.944;2023-06-01T09:12:29;4.78;;;1.92;;
31128;SDS011;17777;48.770;8.944;2023-06-01T09:15:12;4.40;;;2.10;;
31128;SDS011;17777;48.770;8.944;2023-06-01T09:17:49;2.60;;;2.08;;
31128;SDS011;17777;48.770;8.944;2023-06-01T09:20:23;3.72;;;1.55;;
31128;SDS011;17777;48.770;8.944;2023-06-01T09:22:51;2.00;;;1.77;;
31128;SDS011;17777;48.770;8.944;2023-06-01T09:25:23;3.70;;;2.45;;
31128;SDS011;17777;48.770;8.944;2023-06-01T09:27:54;3.22;;;1.80;;
31128;SDS011;17777;48.770;8.944;2023-06-01T09:30:23;2.97;;;1.80;;
31128;SDS011;17777;48.770;8.944;2023-06-01T09:32:51;2.28;;;1.83;;
31128;SDS011;17777;48.770;8.944;2023-06-01T09:35:42;3.08;;;1.95;;
31128;SDS011;17777;48.770;8.944;2023-06-01T09:38:21;5.05;;;1.85;;
31128;SDS011;17777;48.770;8.944;2023-06-01T09:41:00;4.53;;;1.95;;
31128;SDS011;17777;48.770;8.944;2023-06-01T09:43:28;3.58;;;2.10;;
31128;SDS011;17777;48.770;8.944;2023-06-01T09:46:05;3.28;;;2.17;;
31128;SDS011;17777;48.770;8.944;2023-06-01T09:48:33;2.92;;;1.95;;
31128;SDS011;17777;48.770;8.944;2023-06-01T09:50:59;3.53;;;2.13;;
31128;SDS011;17777;48.770;8.944;2023-06-01T09:53:25;3.05;;;2.10;;
31128;SDS011;17777;48.770;8.944;2023-06-01T09:56:01;2.80;;;2.10;;
31128;SDS011;17777;48.770;8.944;2023-06-01T09:58:27;3.70;;;2.53;;
31128;SDS011;17777;48.770;8.944;2023-06-01T10:00:53;5.20;;;2.42;;
31128;SDS011;17777;48.770;8.944;2023-06-01T10:03:21;6.20;;;1.90;;
31128;SDS011;17777;48.770;8.944;2023-06-01T10:05:48;2.70;;;2.20;;
31128;SDS011;17777;48.770;8.944;2023-06-01T10:08:15;3.67;;;2.40;;
31128;SDS011;17777;48.770;8.944;2023-06-01T10:10:44;3.17;;;2.15;;
31128;SDS011;17777;48.770;8.944;2023-06-01T10:13:12;3.80;;;2.22;;
31128;SDS011;17777;48.770;8.944;2023-06-01T10:15:38;3.78;;;2.33;;
31128;SDS011;17777;48.770;8.944;2023-06-01T10:18:04;5.35;;;2.28;;
31128;SDS011;17777;48.770;8.944;2023-06-01T10:20:32;3.22;;;2.25;;
31128;SDS011;17777;48.770;8.944;2023-06-01T10:23:03;4.00;;;2.40;;
31128;SDS011;17777;48.770;8.944;2023-06-01T10:25:30;3.25;;;2.13;;
31128;SDS011;17777;48.770;8.944;2023-06-01T10:28:05;2.30;;;1.90;;
31128;SDS011;17777;48.770;8.944;2023-06-01T10:30:33;2.42;;;2.22;;
31128;SDS011;17777;48.770;8.944;2023-06-01T10:32:59;5.20;;;2.30;;
31128;SDS011;17777;48.770;8.944;2023-06-01T10:40:34;3.70;;;2.35;;
31128;SDS011;17777;48.770;8.944;2023-06-01T10:43:01;4.40;;;2.38;;
31128;SDS011;17777;48.770;8.944;2023-06-01T10:48:03;2.72;;;2.10;;
31128;SDS011;17777;48.770;8.944;2023-06-01T10:50:35;3.58;;;2.40;;
31128;SDS011;17777;48.770;8.944;2023-06-01T10:53:22;3.15;;;2.03;;
31128;SDS011;17777;48.770;8.944;2023-06-01T11:01:33;2.85;;;2.22;;
31128;SDS011;17777;48.770;8.944;2023-06-01T11:04:00;2.00;;;1.80;;
31128;SDS011;17777;48.770;8.944;2023-06-01T11:06:30;3.65;;;2.33;;
31128;SDS011;17777;48.770;8.944;2023-06-01T11:09:02;2.30;;;2.10;;
31128;SDS011;17777;48.770;8.944;2023-06-01T11:14:13;3.50;;;2.13;;
31128;SDS011;17777;48.770;8.944;2023-06-01T11:16:40;3.25;;;1.83;;
31128;SDS011;17777;48.770;8.944;2023-06-01T11:19:06;1.98;;;1.70;;
31128;SDS011;17777;48.770;8.944;2023-06-01T11:21:35;1.95;;;1.70;;
31128;SDS011;17777;48.770;8.944;2023-06-01T11:24:15;2.20;;;1.92;;
31128;SDS011;17777;48.770;8.944;2023-06-01T11:26:43;1.75;;;1.65;;
31128;SDS011;17777;48.770;8.944;2023-06-01T11:29:18;2.20;;;1.75;;
31128;SDS011;17777;48.770;8.944;2023-06-01T11:31:47;4.43;;;1.83;;
31128;SDS011;17777;48.770;8.944;2023-06-01T11:34:31;3.33;;;1.85;;
31128;SDS011;17777;48.770;8.944;2023-06-01T11:37:02;2.30;;;1.83;;
31128;SDS011;17777;48.770;8.944;2023-06-01T11:39:29;2.38;;;1.70;;
31128;SDS011;17777;48.770;8.944;2023-06-01T11:42:05;3.88;;;2.00;;
31128;SDS011;17777;48.770;8.944;2023-06-01T11:44:57;4.32;;;1.85;;
31128;SDS011;17777;48.770;8.944;2023-06-01T11:47:27;2.17;;;1.98;;
31128;SDS011;17777;48.770;8.944;2023-06-01T11:49:58;2.00;;;1.52;;
31128;SDS011;17777;48.770;8.944;2023-06-01T11:52:24;2.40;;;1.90;;
31128;SDS011;17777;48.770;8.944;2023-06-01T11:54:50;2.60;;;1.85;;
31128;SDS011;17777;48.770;8.944;2023-06-01T11:57:18;2.30;;;2.10;;
31128;SDS011;17777;48.770;8.944;2023-06-01T11:59:48;2.25;;;1.75;;
31128;SDS011;17777;48.770;8.944;2023-06-01T12:02:19;2.88;;;2.10;;
31128;SDS011;17777;48.770;8.944;2023-06-01T12:07:46;2.55;;;1.83;;
31128;SDS011;17777;48.770;8.944;2023-06-01T12:10:16;2.80;;;1.80;;
31128;SDS011;17777;48.770;8.944;2023-06-01T12:12:44;3.53;;;2.28;;
31128;SDS011;17777;48.770;8.944;2023-06-01T12:15:12;2.20;;;2.00;;
31128;SDS011;17777;48.770;8.944;2023-06-01T12:17:53;3.42;;;1.80;;
31128;SDS011;17777;48.770;8.944;2023-06-01T12:20:30;2.15;;;1.80;;
31128;SDS011;17777;48.770;8.944;2023-06-01T12:23:00;1.80;;;1.70;;
31128;SDS011;17777;48.770;8.944;2023-06-01T12:25:28;2.00;;;1.80;;
31128;SDS011;17777;48.770;8.944;2023-06-01T12:28:04;2.08;;;1.75;;
31128;SDS011;17777;48.770;8.944;2023-06-01T12:30:35;2.88;;;1.83;;
31128;SDS011;17777;48.770;8.944;2023-06-01T12:33:01;2.47;;;2.10;;
31128;SDS011;17777;48.770;8.944;2023-06-01T12:35:29;2.00;;;1.60;;
31128;SDS011;17777;48.770;8.944;2023-06-01T12:38:05;2.40;;;1.60;;
31128;SDS011;17777;48.770;8.944;2023-06-01T12:40:35;2.05;;;1.80;;
31128;SDS011;17777;48.770;8.944;2023-06-01T12:43:04;6.47;;;1.98;;
31128;SDS011;17777;48.770;8.944;2023-06-01T12:45:34;2.30;;;1.90;;
31128;SDS011;17777;48.770;8.944;2023-06-01T12:48:04;1.70;;;1.60;;
31128;SDS011;17777;48.770;8.944;2023-06-01T12:50:31;2.65;;;1.88;;
31128;SDS011;17777;48.770;8.944;2023-06-01T12:52:57;3.28;;;2.00;;
31128;SDS011;17777;48.770;8.944;2023-06-01T12:55:22;4.50;;;2.08;;
31128;SDS011;17777;48.770;8.944;2023-06-01T12:57:51;2.22;;;1.90;;
31128;SDS011;17777;48.770;8.944;2023-06-01T13:00:19;3.60;;;1.67;;
31128;SDS011;17777;48.770;8.944;2023-06-01T13:02:45;2.15;;;1.50;;
31128;SDS011;17777;48.770;8.944;2023-06-01T13:05:15;2.05;;;1.58;;
31128;SDS011;17777;48.770;8.944;2023-06-01T13:07:45;3.45;;;1.80;;
31128;SDS011;17777;48.770;8.944;2023-06-01T13:10:11;2.70;;;1.63;;
31128;SDS011;17777;48.770;8.944;2023-06-01T13:12:38;2.22;;;1.85;;
31128;SDS011;17777;48.770;8.944;2023-06-01T13:15:05;1.92;;;1.83;;
31128;SDS011;17777;48.770;8.944;2023-06-01T13:17:32;2.60;;;1.95;;
31128;SDS011;17777;48.770;8.944;2023-06-01T13:19:58;2.85;;;2.03;;
31128;SDS011;17777;48.770;8.944;2023-06-01T13:22:24;5.35;;;1.90;;
31128;SDS011;17777;48.770;8.944;2023-06-01T13:24:50;2.08;;;1.58;;
31128;SDS011;17777;48.770;8.944;2023-06-01T13:27:16;2.67;;;1.80;;
31128;SDS011;17777;48.770;8.944;2023-06-01T13:29:41;2.08;;;1.88;;
31128;SDS011;17777;48.770;8.944;2023-06-01T13:32:07;2.08;;;1.88;;
31128;SDS011;17777;48.770;8.944;2023-06-01T13:34:34;2.38;;;1.80;;
31128;SDS011;17777;48.770;8.944;2023-06-01T13:37:00;3.45;;;2.10;;
31128;SDS011;17777;48.770;8.944;2023-06-01T13:39:26;2.35;;;1.65;;
31128;SDS011;17777;48.770;8.944;2023-06-01T13:41:52;2.40;;;1.67;;
31128;SDS011;17777;48.770;8.944;2023-06-01T13:44:18;1.83;;;1.35;;
31128;SDS011;17777;48.770;8.944;2023-06-01T13:46:44;2.40;;;1.77;;
31128;SDS011;17777;48.770;8.944;2023-06-01T13:49:10;2.70;;;1.50;;
31128;SDS011;17777;48.770;8.944;2023-06-01T13:51:36;1.70;;;1.45;;
31128;SDS011;17777;48.770;8.944;2023-06-01T13:54:04;4.15;;;1.85;;
31128;SDS011;17777;48.770;8.944;2023-06-01T13:56:30;2.22;;;1.52;;
31128;SDS011;17777;48.770;8.944;2023-06-01T13:58:56;3.95;;;1.80;;
31128;SDS011;17777;48.770;8.944;2023-06-01T14:01:22;2.10;;;1.90;;
31128;SDS011;17777;48.770;8.944;2023-06-01T14:03:48;2.17;;;1.83;;
31128;SDS011;17777;48.770;8.944;2023-06-01T14:06:14;1.55;;;1.45;;
31128;SDS011;17777;48.770;8.944;2023-06-01T14:08:40;2.03;;;1.70;;
31128;SDS011;17777;48.770;8.944;2023-06-01T14:11:06;1.92;;;1.52;;
31128;SDS011;17777;48.770;8.944;2023-06-01T14:13:31;1.63;;;1.52;;
31128;SDS011;17777;48.770;8.944;2023-06-01T14:15:57;2.15;;;1.67;;
31128;SDS011;17777;48.770;8.944;2023-06-01T14:18:23;4.15;;;2.00;;
31128;SDS011;17777;48.770;8.944;2023-06-01T14:20:49;2.05;;;1.50;;
31128;SDS011;17777;48.770;8.944;2023-06-01T14:23:15;1.70;;;1.40;;
31128;SDS011;17777;48.770;8.944;2023-06-01T14:25:41;1.95;;;1.45;;
31128;SDS011;17777;48.770;8.944;2023-06-01T14:28:07;1.83;;;1.50;;
31128;SDS011;17777;48.770;8.944;2023-06-01T14:30:32;2.85;;;1.33;;
31128;SDS011;17777;48.770;8.944;2023-06-01T14:32:58;1.50;;;1.40;;
31128;SDS011;17777;48.770;8.944;2023-06-01T14:35:24;1.60;;;1.50;;
31128;SDS011;17777;48.770;8.944;2023-06-01T14:37:51;2.33;;;1.50;;
31128;SDS011;17777;48.770;8.944;2023-06-01T14:40:17;3.85;;;1.70;;
31128;SDS011;17777;48.770;8.944;2023-06-01T14:42:43;2.35;;;1.55;;
31128;SDS011;17777;48.770;8.944;2023-06-01T14:45:10;2.67;;;1.73;;
31128;SDS011;17777;48.770;8.944;2023-06-01T14:47:36;2.03;;;1.42;;
31128;SDS011;17777;48.770;8.944;2023-06-01T14:50:02;1.33;;;1.02;;
31128;SDS011;17777;48.770;8.944;2023-06-01T14:52:28;1.70;;;1.08;;
31128;SDS011;17777;48.770;8.944;2023-06-01T14:54:55;1.65;;;1.45;;
31128;SDS011;17777;48.770;8.944;2023-06-01T14:57:21;2.60;;;1.27;;
31128;SDS011;17777;48.770;8.944;2023-06-01T14:59:46;2.28;;;1.23;;
31128;SDS011;17777;48.770;8.944;2023-06-01T15:02:12;2.17;;;1.30;;
31128;SDS011;17777;48.770;8.944;2023-06-01T15:04:38;1.55;;;1.20;;
31128;SDS011;17777;48.770;8.944;2023-06-01T15:07:04;3.05;;;1.25;;
31128;SDS011;17777;48.770;8.944;2023-06-01T15:09:30;1.30;;;1.08;;
31128;SDS011;17777;48.770;8.944;2023-06-01T15:11:56;3.17;;;1.20;;
31128;SDS011;17777;48.770;8.944;2023-06-01T15:14:22;1.20;;;1.00;;
31128;SDS011;17777;48.770;8.944;2023-06-01T15:16:48;1.23;;;1.00;;
31128;SDS011;17777;48.770;8.944;2023-06-01T15:19:14;1.67;;;1.17;;
31128;SDS011;17777;48.770;8.944;2023-06-01T15:21:40;2.05;;;1.00;;
31128;SDS011;17777;48.770;8.944;2023-06-01T15:24:06;1.90;;;0.93;;
31128;SDS011;17777;48.770;8.944;2023-06-01T15:26:31;1.65;;;1.20;;